PWSweather.com
Personal Weather Stations
Station Observations
WISCHPK61
Green Bay Schmitt Park, Green Bay, WI 54311

Green Bay Schmitt ParkGreen Bay, WI 54311

Lat: 44.514277, Lon: -87.935067

Elevation: 735

Station Type: Acu Rite Pro Weather Center model 02032C

http://greenbayweathercam.com

High Low Average
Temperature 32.0°F0.0°C 11.1°F-11.6°C 26.2°F-3.2°C
Dew Point 31.8°F-0.1°C 6.3°F-14.3°C 24.2°F-4.3°C
Winds 6.9 mph 11.1 kmh Calm Calm 2.0 mph W3.2 kmh W
Wind Gusts 10.4 mph16.7 kmh -- 4.0 mph6.4 kmh
Humidity 99% 70% 92%
Pressure 29.18 in988.1 mb 28.37 in960.7 mb -
Precipitation 0.22 in5.6 mm - -
Hour Temp Dew Point Humidity Winds Wind Gusts Pressure Precip Precip Rate Daily Precip Total
12:00 AM 32.0°F0.0°C 31.0°F-0.6°C 96% Calm Calm -- 28.64 in969.9 mb - 0.21 in5.3 mm 0.21 in5.3 mm
01:00 AM 32.0°F0.0°C 29.7°F-1.3°C 91% Calm Calm -- 28.57 in967.5 mb - 0.16 in4.1 mm 0.16 in4.1 mm
02:00 AM 32.0°F0.0°C 29.9°F-1.2°C 92% Calm Calm -- 28.50 in965.1 mb - 0.02 in0.5 mm 0.18 in4.6 mm
03:00 AM 32.0°F0.0°C 31.8°F-0.1°C 99% Calm Calm -- 28.42 in962.4 mb - 0.02 in0.5 mm 0.20 in5.1 mm
04:00 AM 31.8°F-0.1°C 31.3°F-0.4°C 98% Calm Calm -- 28.39 in961.4 mb - 0.00 in0.0 mm 0.20 in5.1 mm
05:00 AM 31.6°F-0.2°C 31.4°F-0.3°C 99% Calm Calm -- 28.38 in961.1 mb - 0.02 in0.5 mm 0.22 in5.6 mm
06:00 AM 31.3°F-0.4°C 31.1°F-0.5°C 99% Calm Calm -- 28.37 in960.7 mb - 0.00 in0.0 mm 0.22 in5.6 mm
07:00 AM 30.4°F-0.9°C 30.2°F-1.0°C 99% Calm Calm -- 28.39 in961.4 mb - 0.00 in0.0 mm 0.22 in5.6 mm
08:00 AM 29.8°F-1.2°C 29.6°F-1.3°C 99% 2.3 mph WNW3.7 kmh WNW 4.6 mph7.4 kmh 28.43 in962.8 mb - 0.00 in0.0 mm 0.22 in5.6 mm
09:00 AM 31.3°F-0.4°C 31.1°F-0.5°C 99% 2.3 mph NNW3.7 kmh NNW 4.6 mph7.4 kmh 28.47 in964.1 mb - 0.00 in0.0 mm 0.22 in5.6 mm
10:00 AM 31.1°F-0.5°C 30.9°F-0.6°C 99% 3.5 mph WNW5.6 kmh WNW 4.6 mph7.4 kmh 28.53 in966.1 mb - 0.00 in0.0 mm 0.22 in5.6 mm
11:00 AM 31.5°F-0.3°C 31.3°F-0.4°C 99% 4.6 mph NW7.4 kmh NW 8.1 mph13.0 kmh 28.57 in967.5 mb - 0.00 in0.0 mm 0.22 in5.6 mm
12:00 PM 30.9°F-0.6°C 26.6°F-3.0°C 84% 3.5 mph NW5.6 kmh NW 4.6 mph7.4 kmh 28.61 in968.8 mb - 0.00 in0.0 mm 0.22 in5.6 mm
01:00 PM 28.9°F-1.7°C 28.7°F-1.8°C 99% 5.8 mph NNW9.3 kmh NNW 5.8 mph9.3 kmh 28.67 in970.9 mb - 0.00 in0.0 mm 0.22 in5.6 mm
02:00 PM 26.8°F-2.9°C 19.9°F-6.7°C 75% 4.6 mph NW7.4 kmh NW 5.8 mph9.3 kmh 28.71 in972.2 mb - 0.00 in0.0 mm 0.22 in5.6 mm
03:00 PM 25.9°F-3.4°C 25.7°F-3.5°C 99% 2.3 mph NNW3.7 kmh NNW 5.8 mph9.3 kmh 28.76 in973.9 mb - 0.00 in0.0 mm 0.22 in5.6 mm
04:00 PM 25.0°F-3.9°C 17.6°F-8.0°C 73% 4.6 mph WNW7.4 kmh WNW 9.2 mph14.8 kmh 28.81 in975.6 mb - 0.00 in0.0 mm 0.22 in5.6 mm
05:00 PM 22.8°F-5.1°C 22.6°F-5.2°C 99% 5.8 mph WNW9.3 kmh WNW 5.8 mph9.3 kmh 28.86 in977.3 mb - 0.00 in0.0 mm 0.22 in5.6 mm
06:00 PM 20.3°F-6.5°C 12.1°F-11.1°C 70% 5.8 mph WNW9.3 kmh WNW 6.9 mph11.1 kmh 28.91 in979.0 mb - 0.00 in0.0 mm 0.22 in5.6 mm
07:00 PM 18.0°F-7.8°C 17.8°F-7.9°C 99% 6.9 mph W11.1 kmh W 10.4 mph16.7 kmh 28.96 in980.7 mb - 0.00 in0.0 mm 0.22 in5.6 mm
08:00 PM 16.0°F-8.9°C 9.5°F-12.5°C 75% Calm Calm -- 29.01 in982.4 mb - 0.00 in0.0 mm 0.22 in5.6 mm
09:00 PM 14.2°F-9.9°C 14.0°F-10.0°C 99% 2.3 mph W3.7 kmh W 6.9 mph11.1 kmh 29.06 in984.1 mb - 0.00 in0.0 mm 0.22 in5.6 mm
10:00 PM 12.4°F-10.9°C 6.3°F-14.3°C 76% 4.6 mph WNW7.4 kmh WNW 6.9 mph11.1 kmh 29.12 in986.1 mb - 0.00 in0.0 mm 0.22 in5.6 mm
11:00 PM 11.1°F-11.6°C 10.9°F-11.7°C 99% Calm Calm -- 29.18 in988.1 mb - 0.00 in0.0 mm 0.22 in5.6 mm